sensor_id;sensor_type;location;lat;lon;timestamp;P1;durP1;ratioP1;P2;durP2;ratioP2
51602;SDS011;37954;51.980;5.850;2023-07-31T00:00:43;1.95;;;1.35;;
51602;SDS011;37954;51.980;5.850;2023-07-31T00:04:55;1.75;;;1.35;;
51602;SDS011;37954;51.980;5.850;2023-07-31T00:09:07;3.45;;;1.17;;
51602;SDS011;37954;51.980;5.850;2023-07-31T00:13:19;1.40;;;1.30;;
51602;SDS011;37954;51.980;5.850;2023-07-31T00:17:31;3.63;;;1.60;;
51602;SDS011;37954;51.980;5.850;2023-07-31T00:21:43;1.48;;;1.38;;
51602;SDS011;37954;51.980;5.850;2023-07-31T00:25:55;1.17;;;1.10;;
51602;SDS011;37954;51.980;5.850;2023-07-31T00:30:07;1.42;;;1.33;;
51602;SDS011;37954;51.980;5.850;2023-07-31T00:34:19;1.40;;;1.30;;
51602;SDS011;37954;51.980;5.850;2023-07-31T00:38:31;1.70;;;1.48;;
51602;SDS011;37954;51.980;5.850;2023-07-31T00:42:43;1.60;;;1.50;;
51602;SDS011;37954;51.980;5.850;2023-07-31T00:46:55;2.97;;;2.22;;
51602;SDS011;37954;51.980;5.850;2023-07-31T00:51:07;4.82;;;2.83;;
51602;SDS011;37954;51.980;5.850;2023-07-31T00:55:19;7.00;;;3.95;;
51602;SDS011;37954;51.980;5.850;2023-07-31T00:59:33;9.27;;;4.60;;
51602;SDS011;37954;51.980;5.850;2023-07-31T01:03:46;9.57;;;5.82;;
51602;SDS011;37954;51.980;5.850;2023-07-31T01:12:14;17.48;;;6.75;;
51602;SDS011;37954;51.980;5.850;2023-07-31T01:16:28;19.42;;;7.68;;
51602;SDS011;37954;51.980;5.850;2023-07-31T01:20:40;17.58;;;7.93;;
51602;SDS011;37954;51.980;5.850;2023-07-31T01:29:47;14.10;;;7.30;;
51602;SDS011;37954;51.980;5.850;2023-07-31T01:34:00;15.82;;;7.10;;
51602;SDS011;37954;51.980;5.850;2023-07-31T01:38:14;19.17;;;6.72;;
51602;SDS011;37954;51.980;5.850;2023-07-31T01:42:25;13.48;;;6.65;;
51602;SDS011;37954;51.980;5.850;2023-07-31T01:46:37;17.02;;;7.03;;
51602;SDS011;37954;51.980;5.850;2023-07-31T01:50:49;17.88;;;6.53;;
51602;SDS011;37954;51.980;5.850;2023-07-31T01:55:01;17.23;;;6.63;;
51602;SDS011;37954;51.980;5.850;2023-07-31T01:59:13;13.30;;;6.70;;
51602;SDS011;37954;51.980;5.850;2023-07-31T02:03:25;14.98;;;6.88;;
51602;SDS011;37954;51.980;5.850;2023-07-31T02:07:37;11.00;;;6.20;;
51602;SDS011;37954;51.980;5.850;2023-07-31T02:11:49;15.65;;;6.18;;
51602;SDS011;37954;51.980;5.850;2023-07-31T02:16:00;15.70;;;6.63;;
51602;SDS011;37954;51.980;5.850;2023-07-31T02:20:12;11.57;;;5.93;;
51602;SDS011;37954;51.980;5.850;2023-07-31T02:24:24;17.55;;;5.65;;
51602;SDS011;37954;51.980;5.850;2023-07-31T02:28:36;11.63;;;6.45;;
51602;SDS011;37954;51.980;5.850;2023-07-31T02:32:48;12.32;;;5.53;;
51602;SDS011;37954;51.980;5.850;2023-07-31T02:37:00;9.43;;;6.00;;
51602;SDS011;37954;51.980;5.850;2023-07-31T02:41:12;11.77;;;5.32;;
51602;SDS011;37954;51.980;5.850;2023-07-31T02:45:23;14.73;;;5.93;;
51602;SDS011;37954;51.980;5.850;2023-07-31T02:49:35;13.02;;;5.72;;
51602;SDS011;37954;51.980;5.850;2023-07-31T02:53:47;11.48;;;5.55;;
51602;SDS011;37954;51.980;5.850;2023-07-31T02:57:59;11.27;;;5.45;;
51602;SDS011;37954;51.980;5.850;2023-07-31T03:02:11;11.75;;;5.63;;
51602;SDS011;37954;51.980;5.850;2023-07-31T03:06:24;17.48;;;5.78;;
51602;SDS011;37954;51.980;5.850;2023-07-31T03:10:37;15.45;;;5.88;;
51602;SDS011;37954;51.980;5.850;2023-07-31T03:14:49;16.10;;;6.40;;
51602;SDS011;37954;51.980;5.850;2023-07-31T03:19:01;16.80;;;5.60;;
51602;SDS011;37954;51.980;5.850;2023-07-31T03:23:12;15.25;;;6.00;;
51602;SDS011;37954;51.980;5.850;2023-07-31T03:27:24;15.02;;;6.10;;
51602;SDS011;37954;51.980;5.850;2023-07-31T03:31:36;15.70;;;6.30;;
51602;SDS011;37954;51.980;5.850;2023-07-31T03:35:48;14.75;;;5.65;;
51602;SDS011;37954;51.980;5.850;2023-07-31T03:39:59;16.30;;;6.28;;
51602;SDS011;37954;51.980;5.850;2023-07-31T03:44:11;11.65;;;5.53;;
51602;SDS011;37954;51.980;5.850;2023-07-31T03:48:23;12.00;;;5.80;;
51602;SDS011;37954;51.980;5.850;2023-07-31T03:52:34;11.68;;;5.70;;
51602;SDS011;37954;51.980;5.850;2023-07-31T03:56:46;11.18;;;5.07;;
51602;SDS011;37954;51.980;5.850;2023-07-31T04:00:58;10.80;;;5.78;;
51602;SDS011;37954;51.980;5.850;2023-07-31T04:05:10;20.58;;;5.88;;
51602;SDS011;37954;51.980;5.850;2023-07-31T04:09:22;11.25;;;5.28;;
51602;SDS011;37954;51.980;5.850;2023-07-31T04:13:34;10.85;;;5.65;;
51602;SDS011;37954;51.980;5.850;2023-07-31T04:17:45;14.82;;;5.28;;
51602;SDS011;37954;51.980;5.850;2023-07-31T04:21:57;11.00;;;5.25;;
51602;SDS011;37954;51.980;5.850;2023-07-31T04:26:09;13.95;;;5.53;;
51602;SDS011;37954;51.980;5.850;2023-07-31T04:30:20;10.50;;;5.05;;
51602;SDS011;37954;51.980;5.850;2023-07-31T04:34:32;9.98;;;4.65;;
51602;SDS011;37954;51.980;5.850;2023-07-31T04:38:44;11.63;;;5.65;;
51602;SDS011;37954;51.980;5.850;2023-07-31T04:42:55;14.80;;;5.13;;
51602;SDS011;37954;51.980;5.850;2023-07-31T04:47:07;8.75;;;5.00;;
51602;SDS011;37954;51.980;5.850;2023-07-31T04:51:19;17.05;;;5.97;;
51602;SDS011;37954;51.980;5.850;2023-07-31T04:55:32;11.82;;;5.50;;
51602;SDS011;37954;51.980;5.850;2023-07-31T04:59:44;7.60;;;5.00;;
51602;SDS011;37954;51.980;5.850;2023-07-31T05:03:56;14.38;;;5.82;;
51602;SDS011;37954;51.980;5.850;2023-07-31T05:08:08;9.93;;;4.88;;
51602;SDS011;37954;51.980;5.850;2023-07-31T05:12:20;17.08;;;6.05;;
51602;SDS011;37954;51.980;5.850;2023-07-31T05:16:32;9.73;;;5.00;;
51602;SDS011;37954;51.980;5.850;2023-07-31T05:20:44;14.32;;;5.47;;
51602;SDS011;37954;51.980;5.850;2023-07-31T05:24:55;8.27;;;4.50;;
51602;SDS011;37954;51.980;5.850;2023-07-31T05:29:07;14.18;;;5.47;;
51602;SDS011;37954;51.980;5.850;2023-07-31T05:33:19;6.80;;;4.07;;
51602;SDS011;37954;51.980;5.850;2023-07-31T05:37:31;9.80;;;4.72;;
51602;SDS011;37954;51.980;5.850;2023-07-31T05:41:42;9.82;;;4.65;;
51602;SDS011;37954;51.980;5.850;2023-07-31T05:45:54;7.68;;;4.22;;
51602;SDS011;37954;51.980;5.850;2023-07-31T05:50:06;8.43;;;4.85;;
51602;SDS011;37954;51.980;5.850;2023-07-31T05:54:18;12.32;;;4.97;;
51602;SDS011;37954;51.980;5.850;2023-07-31T05:58:30;11.38;;;4.53;;
51602;SDS011;37954;51.980;5.850;2023-07-31T06:02:41;11.63;;;4.90;;
51602;SDS011;37954;51.980;5.850;2023-07-31T06:06:53;7.35;;;4.60;;
51602;SDS011;37954;51.980;5.850;2023-07-31T06:11:05;9.18;;;4.60;;
51602;SDS011;37954;51.980;5.850;2023-07-31T06:15:17;8.27;;;4.35;;
51602;SDS011;37954;51.980;5.850;2023-07-31T06:19:32;6.97;;;3.90;;
51602;SDS011;37954;51.980;5.850;2023-07-31T06:23:43;7.85;;;4.50;;
51602;SDS011;37954;51.980;5.850;2023-07-31T06:27:55;9.18;;;4.32;;
51602;SDS011;37954;51.980;5.850;2023-07-31T06:32:07;5.93;;;3.85;;
51602;SDS011;37954;51.980;5.850;2023-07-31T06:36:19;5.68;;;3.53;;
51602;SDS011;37954;51.980;5.850;2023-07-31T06:40:31;8.88;;;3.92;;
51602;SDS011;37954;51.980;5.850;2023-07-31T06:44:42;8.10;;;3.67;;
51602;SDS011;37954;51.980;5.850;2023-07-31T06:48:54;7.97;;;3.78;;
51602;SDS011;37954;51.980;5.850;2023-07-31T06:53:06;5.85;;;3.60;;
51602;SDS011;37954;51.980;5.850;2023-07-31T06:57:18;4.70;;;3.30;;
51602;SDS011;37954;51.980;5.850;2023-07-31T07:01:29;4.07;;;3.03;;
51602;SDS011;37954;51.980;5.850;2023-07-31T07:05:41;3.38;;;2.70;;
51602;SDS011;37954;51.980;5.850;2023-07-31T07:09:53;2.92;;;2.50;;
51602;SDS011;37954;51.980;5.850;2023-07-31T07:14:05;3.10;;;2.22;;
51602;SDS011;37954;51.980;5.850;2023-07-31T07:18:17;4.15;;;2.05;;
51602;SDS011;37954;51.980;5.850;2023-07-31T07:22:29;2.20;;;2.00;;
51602;SDS011;37954;51.980;5.850;2023-07-31T07:26:41;3.53;;;1.92;;
51602;SDS011;37954;51.980;5.850;2023-07-31T07:30:55;1.90;;;1.67;;
51602;SDS011;37954;51.980;5.850;2023-07-31T07:35:06;2.28;;;1.90;;
51602;SDS011;37954;51.980;5.850;2023-07-31T07:39:18;2.00;;;1.80;;
51602;SDS011;37954;51.980;5.850;2023-07-31T07:43:30;1.85;;;1.73;;
51602;SDS011;37954;51.980;5.850;2023-07-31T07:47:42;1.50;;;1.40;;
51602;SDS011;37954;51.980;5.850;2023-07-31T07:51:54;2.45;;;1.60;;
51602;SDS011;37954;51.980;5.850;2023-07-31T07:56:05;1.50;;;1.40;;
51602;SDS011;37954;51.980;5.850;2023-07-31T08:00:17;2.33;;;1.67;;
51602;SDS011;37954;51.980;5.850;2023-07-31T08:04:30;1.40;;;1.30;;
51602;SDS011;37954;51.980;5.850;2023-07-31T08:08:42;1.55;;;1.45;;
51602;SDS011;37954;51.980;5.850;2023-07-31T08:12:54;1.50;;;1.40;;
51602;SDS011;37954;51.980;5.850;2023-07-31T08:17:05;2.00;;;1.70;;
51602;SDS011;37954;51.980;5.850;2023-07-31T08:21:17;1.67;;;1.50;;
51602;SDS011;37954;51.980;5.850;2023-07-31T08:25:29;1.92;;;1.60;;
51602;SDS011;37954;51.980;5.850;2023-07-31T08:29:41;1.90;;;1.80;;
51602;SDS011;37954;51.980;5.850;2023-07-31T08:33:53;1.70;;;1.60;;
51602;SDS011;37954;51.980;5.850;2023-07-31T08:38:04;2.42;;;2.00;;
51602;SDS011;37954;51.980;5.850;2023-07-31T08:42:16;4.40;;;1.77;;
51602;SDS011;37954;51.980;5.850;2023-07-31T08:46:28;1.85;;;1.75;;
51602;SDS011;37954;51.980;5.850;2023-07-31T08:50:41;2.45;;;2.13;;
51602;SDS011;37954;51.980;5.850;2023-07-31T08:54:53;2.47;;;2.28;;
51602;SDS011;37954;51.980;5.850;2023-07-31T08:59:05;2.40;;;2.20;;
51602;SDS011;37954;51.980;5.850;2023-07-31T09:03:18;3.20;;;2.53;;
51602;SDS011;37954;51.980;5.850;2023-07-31T09:07:30;3.00;;;2.50;;
51602;SDS011;37954;51.980;5.850;2023-07-31T09:11:44;2.78;;;2.30;;
51602;SDS011;37954;51.980;5.850;2023-07-31T09:15:56;3.15;;;2.20;;
51602;SDS011;37954;51.980;5.850;2023-07-31T09:20:18;2.95;;;2.67;;
51602;SDS011;37954;51.980;5.850;2023-07-31T09:24:33;3.67;;;2.45;;
51602;SDS011;37954;51.980;5.850;2023-07-31T09:28:46;3.53;;;3.10;;
51602;SDS011;37954;51.980;5.850;2023-07-31T09:33:02;3.38;;;2.97;;
51602;SDS011;37954;51.980;5.850;2023-07-31T09:37:17;6.68;;;3.72;;
51602;SDS011;37954;51.980;5.850;2023-07-31T09:41:30;4.38;;;3.95;;
51602;SDS011;37954;51.980;5.850;2023-07-31T09:45:43;5.40;;;4.00;;
51602;SDS011;37954;51.980;5.850;2023-07-31T09:49:55;6.10;;;4.30;;
51602;SDS011;37954;51.980;5.850;2023-07-31T09:58:23;5.30;;;4.28;;
51602;SDS011;37954;51.980;5.850;2023-07-31T10:02:39;5.70;;;4.80;;
51602;SDS011;37954;51.980;5.850;2023-07-31T10:06:51;4.88;;;4.38;;
51602;SDS011;37954;51.980;5.850;2023-07-31T10:11:05;5.32;;;4.82;;
51602;SDS011;37954;51.980;5.850;2023-07-31T10:15:21;5.13;;;4.65;;
51602;SDS011;37954;51.980;5.850;2023-07-31T10:19:33;7.65;;;5.05;;
51602;SDS011;37954;51.980;5.850;2023-07-31T10:23:46;6.35;;;5.40;;
51602;SDS011;37954;51.980;5.850;2023-07-31T10:28:00;5.88;;;5.28;;
51602;SDS011;37954;51.980;5.850;2023-07-31T10:32:12;6.72;;;5.50;;
51602;SDS011;37954;51.980;5.850;2023-07-31T10:36:25;6.75;;;5.25;;
51602;SDS011;37954;51.980;5.850;2023-07-31T10:40:38;6.32;;;4.80;;
51602;SDS011;37954;51.980;5.850;2023-07-31T10:44:50;7.68;;;5.18;;
51602;SDS011;37954;51.980;5.850;2023-07-31T10:49:07;6.95;;;5.10;;
51602;SDS011;37954;51.980;5.850;2023-07-31T10:53:23;7.93;;;5.15;;
51602;SDS011;37954;51.980;5.850;2023-07-31T10:57:36;8.40;;;5.90;;
51602;SDS011;37954;51.980;5.850;2023-07-31T11:01:55;6.65;;;5.03;;
51602;SDS011;37954;51.980;5.850;2023-07-31T11:06:14;7.05;;;5.03;;
51602;SDS011;37954;51.980;5.850;2023-07-31T11:10:29;6.85;;;5.00;;
51602;SDS011;37954;51.980;5.850;2023-07-31T11:14:41;5.95;;;4.93;;
51602;SDS011;37954;51.980;5.850;2023-07-31T11:18:53;7.15;;;4.95;;
51602;SDS011;37954;51.980;5.850;2023-07-31T11:23:08;7.07;;;5.25;;
51602;SDS011;37954;51.980;5.850;2023-07-31T11:27:21;5.35;;;4.40;;
51602;SDS011;37954;51.980;5.850;2023-07-31T11:31:33;6.80;;;4.63;;
51602;SDS011;37954;51.980;5.850;2023-07-31T11:35:50;4.95;;;4.50;;
51602;SDS011;37954;51.980;5.850;2023-07-31T11:40:02;6.57;;;4.75;;
51602;SDS011;37954;51.980;5.850;2023-07-31T11:44:15;6.40;;;4.80;;
51602;SDS011;37954;51.980;5.850;2023-07-31T11:48:51;5.40;;;4.63;;
51602;SDS011;37954;51.980;5.850;2023-07-31T11:53:08;4.75;;;4.30;;
51602;SDS011;37954;51.980;5.850;2023-07-31T11:57:20;5.35;;;4.57;;
51602;SDS011;37954;51.980;5.850;2023-07-31T12:01:52;4.95;;;4.45;;
51602;SDS011;37954;51.980;5.850;2023-07-31T12:06:20;6.55;;;3.80;;
51602;SDS011;37954;51.980;5.850;2023-07-31T12:11:12;5.88;;;4.25;;
51602;SDS011;37954;51.980;5.850;2023-07-31T12:25:15;4.63;;;3.75;;
51602;SDS011;37954;51.980;5.850;2023-07-31T12:34:20;4.43;;;3.90;;
51602;SDS011;37954;51.980;5.850;2023-07-31T12:38:38;5.70;;;4.10;;
51602;SDS011;37954;51.980;5.850;2023-07-31T12:43:00;5.13;;;4.03;;
51602;SDS011;37954;51.980;5.850;2023-07-31T12:47:36;5.60;;;4.50;;
51602;SDS011;37954;51.980;5.850;2023-07-31T12:51:56;7.97;;;4.68;;
51602;SDS011;37954;51.980;5.850;2023-07-31T12:56:27;4.93;;;4.28;;
51602;SDS011;37954;51.980;5.850;2023-07-31T13:00:59;9.90;;;4.78;;
51602;SDS011;37954;51.980;5.850;2023-07-31T13:05:28;7.13;;;4.38;;
51602;SDS011;37954;51.980;5.850;2023-07-31T13:09:49;5.93;;;4.70;;
51602;SDS011;37954;51.980;5.850;2023-07-31T13:14:13;7.28;;;4.20;;
51602;SDS011;37954;51.980;5.850;2023-07-31T13:18:38;6.50;;;4.60;;
51602;SDS011;37954;51.980;5.850;2023-07-31T13:22:52;5.15;;;4.00;;
51602;SDS011;37954;51.980;5.850;2023-07-31T13:27:21;5.18;;;4.40;;
51602;SDS011;37954;51.980;5.850;2023-07-31T13:31:39;6.43;;;4.32;;
51602;SDS011;37954;51.980;5.850;2023-07-31T13:35:50;4.68;;;3.90;;
51602;SDS011;37954;51.980;5.850;2023-07-31T13:40:02;4.80;;;3.78;;
51602;SDS011;37954;51.980;5.850;2023-07-31T13:44:16;4.47;;;3.90;;
51602;SDS011;37954;51.980;5.850;2023-07-31T13:48:28;6.82;;;3.78;;
51602;SDS011;37954;51.980;5.850;2023-07-31T13:52:39;4.90;;;3.78;;
51602;SDS011;37954;51.980;5.850;2023-07-31T13:56:52;5.40;;;4.35;;
51602;SDS011;37954;51.980;5.850;2023-07-31T14:01:04;5.22;;;4.68;;
51602;SDS011;37954;51.980;5.850;2023-07-31T14:05:16;4.88;;;4.10;;
51602;SDS011;37954;51.980;5.850;2023-07-31T14:09:28;5.82;;;4.63;;
51602;SDS011;37954;51.980;5.850;2023-07-31T14:13:39;9.30;;;4.10;;
51602;SDS011;37954;51.980;5.850;2023-07-31T14:17:51;5.40;;;4.40;;
51602;SDS011;37954;51.980;5.850;2023-07-31T14:22:03;8.80;;;4.80;;
51602;SDS011;37954;51.980;5.850;2023-07-31T14:26:22;6.03;;;4.85;;
51602;SDS011;37954;51.980;5.850;2023-07-31T14:30:34;8.32;;;5.22;;
51602;SDS011;37954;51.980;5.850;2023-07-31T14:34:45;6.40;;;4.25;;
51602;SDS011;37954;51.980;5.850;2023-07-31T14:38:57;7.55;;;4.63;;
51602;SDS011;37954;51.980;5.850;2023-07-31T14:43:09;5.30;;;3.97;;
51602;SDS011;37954;51.980;5.850;2023-07-31T14:47:21;5.47;;;4.47;;
51602;SDS011;37954;51.980;5.850;2023-07-31T14:51:32;4.25;;;3.85;;
51602;SDS011;37954;51.980;5.850;2023-07-31T14:55:44;6.30;;;4.30;;
51602;SDS011;37954;51.980;5.850;2023-07-31T14:59:56;6.32;;;4.35;;
51602;SDS011;37954;51.980;5.850;2023-07-31T15:04:08;5.65;;;4.82;;
51602;SDS011;37954;51.980;5.850;2023-07-31T15:08:19;7.45;;;5.00;;
51602;SDS011;37954;51.980;5.850;2023-07-31T15:12:31;6.97;;;4.35;;
51602;SDS011;37954;51.980;5.850;2023-07-31T15:20:59;6.53;;;4.78;;
51602;SDS011;37954;51.980;5.850;2023-07-31T15:25:10;5.90;;;3.97;;
51602;SDS011;37954;51.980;5.850;2023-07-31T15:29:22;9.38;;;4.32;;
51602;SDS011;37954;51.980;5.850;2023-07-31T15:33:34;6.38;;;4.07;;
51602;SDS011;37954;51.980;5.850;2023-07-31T15:37:49;9.77;;;4.28;;
51602;SDS011;37954;51.980;5.850;2023-07-31T15:42:01;5.40;;;4.18;;
51602;SDS011;37954;51.980;5.850;2023-07-31T15:46:12;6.10;;;3.58;;
51602;SDS011;37954;51.980;5.850;2023-07-31T15:50:24;7.10;;;4.15;;
51602;SDS011;37954;51.980;5.850;2023-07-31T15:54:36;4.82;;;3.85;;
51602;SDS011;37954;51.980;5.850;2023-07-31T15:58:48;4.13;;;3.10;;
51602;SDS011;37954;51.980;5.850;2023-07-31T16:03:01;4.07;;;3.20;;
51602;SDS011;37954;51.980;5.850;2023-07-31T16:07:13;4.65;;;3.10;;
51602;SDS011;37954;51.980;5.850;2023-07-31T16:11:26;6.35;;;3.28;;
51602;SDS011;37954;51.980;5.850;2023-07-31T16:15:38;8.60;;;2.90;;
51602;SDS011;37954;51.980;5.850;2023-07-31T16:19:50;3.03;;;2.28;;
51602;SDS011;37954;51.980;5.850;2023-07-31T16:24:02;2.30;;;1.92;;
51602;SDS011;37954;51.980;5.850;2023-07-31T16:28:15;2.70;;;1.85;;
51602;SDS011;37954;51.980;5.850;2023-07-31T16:32:27;2.08;;;1.88;;
51602;SDS011;37954;51.980;5.850;2023-07-31T16:36:39;1.60;;;1.50;;
51602;SDS011;37954;51.980;5.850;2023-07-31T16:40:51;1.50;;;1.40;;
51602;SDS011;37954;51.980;5.850;2023-07-31T16:45:03;1.73;;;1.33;;
51602;SDS011;37954;51.980;5.850;2023-07-31T16:49:15;1.90;;;1.60;;
51602;SDS011;37954;51.980;5.850;2023-07-31T16:53:27;1.63;;;1.30;;
51602;SDS011;37954;51.980;5.850;2023-07-31T16:57:39;1.30;;;1.20;;
51602;SDS011;37954;51.980;5.850;2023-07-31T17:01:50;1.67;;;1.48;;
51602;SDS011;37954;51.980;5.850;2023-07-31T17:06:02;2.47;;;1.17;;
51602;SDS011;37954;51.980;5.850;2023-07-31T17:10:14;1.50;;;1.40;;
51602;SDS011;37954;51.980;5.850;2023-07-31T17:14:26;1.23;;;1.13;;
51602;SDS011;37954;51.980;5.850;2023-07-31T17:18:37;3.53;;;1.40;;
51602;SDS011;37954;51.980;5.850;2023-07-31T17:22:49;3.08;;;1.40;;
51602;SDS011;37954;51.980;5.850;2023-07-31T17:27:01;2.00;;;1.20;;
51602;SDS011;37954;51.980;5.850;2023-07-31T17:31:12;1.92;;;1.40;;
51602;SDS011;37954;51.980;5.850;2023-07-31T17:35:24;2.95;;;1.30;;
51602;SDS011;37954;51.980;5.850;2023-07-31T17:39:36;1.20;;;1.10;;
51602;SDS011;37954;51.980;5.850;2023-07-31T17:43:48;1.65;;;1.25;;
51602;SDS011;37954;51.980;5.850;2023-07-31T17:47:59;1.20;;;1.10;;
51602;SDS011;37954;51.980;5.850;2023-07-31T17:52:11;1.20;;;1.10;;
51602;SDS011;37954;51.980;5.850;2023-07-31T17:56:23;1.27;;;1.17;;
51602;SDS011;37954;51.980;5.850;2023-07-31T18:00:35;2.25;;;1.40;;
51602;SDS011;37954;51.980;5.850;2023-07-31T18:04:47;1.33;;;1.23;;
51602;SDS011;37954;51.980;5.850;2023-07-31T18:08:59;1.73;;;1.17;;
51602;SDS011;37954;51.980;5.850;2023-07-31T18:13:12;5.28;;;1.27;;
51602;SDS011;37954;51.980;5.850;2023-07-31T18:17:25;1.85;;;0.93;;
51602;SDS011;37954;51.980;5.850;2023-07-31T18:21:37;1.05;;;1.05;;
51602;SDS011;37954;51.980;5.850;2023-07-31T18:25:49;1.33;;;1.00;;
51602;SDS011;37954;51.980;5.850;2023-07-31T18:30:01;2.53;;;1.08;;
51602;SDS011;37954;51.980;5.850;2023-07-31T18:34:13;1.85;;;0.93;;
51602;SDS011;37954;51.980;5.850;2023-07-31T18:38:25;1.20;;;1.10;;
51602;SDS011;37954;51.980;5.850;2023-07-31T18:42:36;0.70;;;0.70;;
51602;SDS011;37954;51.980;5.850;2023-07-31T18:46:48;1.52;;;1.13;;
51602;SDS011;37954;51.980;5.850;2023-07-31T18:51:00;1.00;;;0.90;;
51602;SDS011;37954;51.980;5.850;2023-07-31T18:55:12;1.10;;;1.00;;
51602;SDS011;37954;51.980;5.850;2023-07-31T18:59:23;1.08;;;1.00;;
51602;SDS011;37954;51.980;5.850;2023-07-31T19:03:35;1.00;;;1.00;;
51602;SDS011;37954;51.980;5.850;2023-07-31T19:07:48;0.90;;;0.90;;
51602;SDS011;37954;51.980;5.850;2023-07-31T19:12:00;1.20;;;1.13;;
51602;SDS011;37954;51.980;5.850;2023-07-31T19:16:12;0.80;;;0.80;;
51602;SDS011;37954;51.980;5.850;2023-07-31T19:20:24;0.93;;;0.93;;
51602;SDS011;37954;51.980;5.850;2023-07-31T19:24:36;1.05;;;1.05;;
51602;SDS011;37954;51.980;5.850;2023-07-31T19:28:49;1.33;;;1.20;;
51602;SDS011;37954;51.980;5.850;2023-07-31T19:33:01;1.20;;;1.10;;
51602;SDS011;37954;51.980;5.850;2023-07-31T19:37:12;1.67;;;1.25;;
51602;SDS011;37954;51.980;5.850;2023-07-31T19:41:33;1.27;;;1.17;;
51602;SDS011;37954;51.980;5.850;2023-07-31T19:46:31;1.95;;;1.30;;
51602;SDS011;37954;51.980;5.850;2023-07-31T19:51:49;1.52;;;1.42;;
51602;SDS011;37954;51.980;5.850;2023-07-31T19:56:12;5.07;;;1.75;;
51602;SDS011;37954;51.980;5.850;2023-07-31T20:01:37;1.45;;;1.30;;
51602;SDS011;37954;51.980;5.850;2023-07-31T20:06:18;4.63;;;1.80;;
51602;SDS011;37954;51.980;5.850;2023-07-31T20:15:57;2.67;;;2.00;;
51602;SDS011;37954;51.980;5.850;2023-07-31T20:25:07;2.20;;;2.05;;
51602;SDS011;37954;51.980;5.850;2023-07-31T20:29:20;2.25;;;2.05;;
51602;SDS011;37954;51.980;5.850;2023-07-31T20:33:32;4.18;;;2.22;;
51602;SDS011;37954;51.980;5.850;2023-07-31T20:37:44;2.28;;;2.05;;
51602;SDS011;37954;51.980;5.850;2023-07-31T20:41:56;4.05;;;2.42;;
51602;SDS011;37954;51.980;5.850;2023-07-31T20:46:07;3.17;;;2.20;;
51602;SDS011;37954;51.980;5.850;2023-07-31T20:50:19;3.13;;;2.22;;
51602;SDS011;37954;51.980;5.850;2023-07-31T20:54:31;2.33;;;2.10;;
51602;SDS011;37954;51.980;5.850;2023-07-31T20:58:43;3.00;;;1.98;;
51602;SDS011;37954;51.980;5.850;2023-07-31T21:02:54;2.33;;;2.13;;
51602;SDS011;37954;51.980;5.850;2023-07-31T21:07:06;2.28;;;2.05;;
51602;SDS011;37954;51.980;5.850;2023-07-31T21:11:21;2.85;;;2.20;;
51602;SDS011;37954;51.980;5.850;2023-07-31T21:15:32;2.88;;;2.42;;
51602;SDS011;37954;51.980;5.850;2023-07-31T21:19:45;3.47;;;2.85;;
51602;SDS011;37954;51.980;5.850;2023-07-31T21:23:57;6.55;;;2.35;;
51602;SDS011;37954;51.980;5.850;2023-07-31T21:28:09;3.85;;;2.65;;
51602;SDS011;37954;51.980;5.850;2023-07-31T21:32:24;2.72;;;2.40;;
51602;SDS011;37954;51.980;5.850;2023-07-31T21:36:37;3.85;;;2.75;;
51602;SDS011;37954;51.980;5.850;2023-07-31T21:40:49;4.15;;;2.60;;
51602;SDS011;37954;51.980;5.850;2023-07-31T21:45:00;3.40;;;2.60;;
51602;SDS011;37954;51.980;5.850;2023-07-31T21:49:12;3.58;;;2.72;;
51602;SDS011;37954;51.980;5.850;2023-07-31T21:53:24;3.17;;;2.80;;
51602;SDS011;37954;51.980;5.850;2023-07-31T21:57:36;2.90;;;2.60;;
51602;SDS011;37954;51.980;5.850;2023-07-31T22:01:47;3.13;;;2.83;;
51602;SDS011;37954;51.980;5.850;2023-07-31T22:05:59;4.75;;;2.95;;
51602;SDS011;37954;51.980;5.850;2023-07-31T22:10:11;4.63;;;3.20;;
51602;SDS011;37954;51.980;5.850;2023-07-31T22:14:22;4.95;;;3.42;;
51602;SDS011;37954;51.980;5.850;2023-07-31T22:18:34;3.78;;;3.10;;
51602;SDS011;37954;51.980;5.850;2023-07-31T22:22:46;3.80;;;3.33;;
51602;SDS011;37954;51.980;5.850;2023-07-31T22:26:58;4.47;;;3.55;;
51602;SDS011;37954;51.980;5.850;2023-07-31T22:31:09;5.60;;;3.60;;
51602;SDS011;37954;51.980;5.850;2023-07-31T22:35:21;3.70;;;3.10;;
51602;SDS011;37954;51.980;5.850;2023-07-31T22:39:33;5.95;;;3.75;;
51602;SDS011;37954;51.980;5.850;2023-07-31T22:43:46;4.10;;;3.70;;
51602;SDS011;37954;51.980;5.850;2023-07-31T22:47:58;3.67;;;3.38;;
51602;SDS011;37954;51.980;5.850;2023-07-31T22:52:10;4.50;;;4.03;;
51602;SDS011;37954;51.980;5.850;2023-07-31T22:56:22;4.43;;;3.75;;
51602;SDS011;37954;51.980;5.850;2023-07-31T23:00:34;5.18;;;3.65;;
51602;SDS011;37954;51.980;5.850;2023-07-31T23:04:45;5.15;;;3.58;;
51602;SDS011;37954;51.980;5.850;2023-07-31T23:08:57;5.05;;;4.28;;
51602;SDS011;37954;51.980;5.850;2023-07-31T23:13:09;4.28;;;3.70;;
51602;SDS011;37954;51.980;5.850;2023-07-31T23:17:21;4.70;;;4.20;;
51602;SDS011;37954;51.980;5.850;2023-07-31T23:21:32;9.02;;;3.90;;
51602;SDS011;37954;51.980;5.850;2023-07-31T23:25:47;5.07;;;4.00;;
51602;SDS011;37954;51.980;5.850;2023-07-31T23:29:59;4.65;;;3.60;;
51602;SDS011;37954;51.980;5.850;2023-07-31T23:34:11;5.93;;;4.43;;
51602;SDS011;37954;51.980;5.850;2023-07-31T23:38:23;4.82;;;4.28;;
51602;SDS011;37954;51.980;5.850;2023-07-31T23:42:35;6.93;;;4.47;;
51602;SDS011;37954;51.980;5.850;2023-07-31T23:46:46;4.75;;;4.10;;
51602;SDS011;37954;51.980;5.850;2023-07-31T23:50:58;5.10;;;4.57;;
51602;SDS011;37954;51.980;5.850;2023-07-31T23:55:10;4.40;;;4.00;;
51602;SDS011;37954;51.980;5.850;2023-07-31T23:59:23;5.60;;;3.92;;
